Terminal Aerodrome Forecast
Issued by NWS Sterling, VA

Current Version | Previous Version | Graphics & Text | Print | Product List | Glossary On
Versions: 1 2 3 4 5 6 7 8 9 10 11 12 13 14 15 16 17 18 19 20 21 22 23 24 25
000
FTUS41 KLWX 281100
TAFDCA
TAF
KDCA 281135Z 2812/2912 19007KT P6SM BKN250
     FM281400 19008G16KT P6SM SCT250
     FM282300 19008KT P6SM FEW250
     FM291000 20008KT P6SM BKN050=

USA.gov is the U.S. government's official web portal to all federal, state and local government web resources and services.